Terminal Aerodrome Forecast
Issued by NWS

Current Version | Previous Version | Graphics & Text | Print | Product List | Glossary On
Versions: 1 2 3 4 5 6 7 8 9 10 11 12 13 14 15 16 17 18 19 20 21 22 23
000
FTUS41 KRLX 281509 AAA
TAFCKB
TAF AMD
KCKB 281509Z 2815/2912 24011KT 2SM -RA BR BKN007 OVC012
     FM281800 25009KT P6SM BKN025
     FM282300 26006KT P6SM SCT035
     FM290200 00000KT P6SM SCT050
     FM290800 00000KT 6SM BR SCT060
     FM291100 00000KT 5SM BR SCT250=

USA.gov is the U.S. government's official web portal to all federal, state and local government web resources and services.